Rosita, Texas
Current Conditions -  °F | °C
As of 6:56 PM on Sunday 21 Dec 2014 (Local Time) from KNOG Reporting Station
Overcast Overcast  
Wind Chill: 59°   Ceiling: 1100
Heat Index: 59°   Visibility: 10mi
Dew Point: 56°   Wind: 9mph
Humidity: 90%   Direction: 170°S
Pressure: 29.92"   Gusts: NA
Location:  27.8895°N, 98.3467°W
Report Text: KNOG 220056Z AUTO 17008KT 10SM OVC011 15/13 A2992 RMK AO2 SLP114 T01500133 $
Loading
Personal Weather Stations






























Interactive Weather Map New forecast layout! Learn more

10-Day Weather Forecast

Advertisements
Track Severe Weather on mobile